Time,TemperatureF,DewpointF,PressureIn,WindDirection,WindDirectionDegrees,WindSpeedMPH,WindSpeedGustMPH,Humidity,HourlyPrecipIn,Conditions,Clouds,dailyrainin,SolarRadiationWatts/m^2,SoftwareType,DateUTC
2013-01-07 00:01:00,30.0,26.9,29.80,WSW,245,0.0,1.0,88,0.00,,,0.00,0,Wunderground v.1.15,2013-01-07 05:01:00,
2013-01-07 00:07:00,30.3,26.9,29.81,SW,214,0.0,1.0,87,0.00,,,0.00,0,Wunderground v.1.15,2013-01-07 05:07:00,
2013-01-07 00:16:00,31.0,27.0,29.81,WSW,249,1.0,1.0,85,0.00,,,0.00,0,Wunderground v.1.15,2013-01-07 05:16:00,
2013-01-07 00:21:00,31.3,27.0,29.81,WSW,250,1.0,1.0,84,0.00,,,0.00,0,Wunderground v.1.15,2013-01-07 05:21:00,
2013-01-07 00:26:00,31.3,27.0,29.81,SSW,207,0.0,1.0,84,0.00,,,0.00,0,Wunderground v.1.15,2013-01-07 05:26:00,
2013-01-07 00:31:00,31.3,27.0,29.82,SSW,207,0.0,1.0,84,0.00,,,0.00,0,Wunderground v.1.15,2013-01-07 05:31:00,
2013-01-07 00:41:00,31.4,26.8,29.82,SSW,207,0.0,1.0,83,0.00,,,0.00,0,Wunderground v.1.15,2013-01-07 05:41:00,
2013-01-07 00:51:00,31.5,26.9,29.82,SSW,207,0.0,1.0,83,0.00,,,0.00,0,Wunderground v.1.15,2013-01-07 05:51:00,
2013-01-07 00:56:00,31.4,26.8,29.82,SSW,207,0.0,1.0,83,0.00,,,0.00,0,Wunderground v.1.15,2013-01-07 05:56:00,
2013-01-07 01:01:00,31.2,26.6,29.82,SSW,207,0.0,1.0,83,0.00,,,0.00,0,Wunderground v.1.15,2013-01-07 06:01:00,
2013-01-07 01:07:00,31.0,26.4,29.83,SSW,207,0.0,1.0,83,0.00,,,0.00,0,Wunderground v.1.15,2013-01-07 06:07:00,
2013-01-07 01:16:00,30.8,26.5,29.83,SSW,207,0.0,1.0,84,0.00,,,0.00,0,Wunderground v.1.15,2013-01-07 06:16:00,
2013-01-07 01:21:00,30.9,26.6,29.83,SSW,207,0.0,1.0,84,0.00,,,0.00,0,Wunderground v.1.15,2013-01-07 06:21:00,
2013-01-07 01:26:00,31.0,26.7,29.83,SSW,207,0.0,1.0,84,0.00,,,0.00,0,Wunderground v.1.15,2013-01-07 06:26:00,
2013-01-07 01:36:00,31.1,26.8,29.84,SSW,208,0.0,1.0,84,0.00,,,0.00,0,Wunderground v.1.15,2013-01-07 06:36:00,
2013-01-07 01:41:00,31.4,26.8,29.84,WNW,284,0.0,1.0,83,0.00,,,0.00,0,Wunderground v.1.15,2013-01-07 06:41:00,
2013-01-07 01:46:00,31.5,26.9,29.84,WNW,284,0.0,1.0,83,0.00,,,0.00,0,Wunderground v.1.15,2013-01-07 06:46:00,
2013-01-07 01:51:00,31.5,26.6,29.84,West,281,0.0,1.0,82,0.00,,,0.00,0,Wunderground v.1.15,2013-01-07 06:51:00,
2013-01-07 01:56:00,31.5,26.6,29.84,WNW,282,0.0,1.0,82,0.00,,,0.00,0,Wunderground v.1.15,2013-01-07 06:56:00,
2013-01-07 02:07:00,31.7,27.1,29.84,West,281,0.0,1.0,83,0.00,,,0.00,0,Wunderground v.1.15,2013-01-07 07:07:00,
2013-01-07 02:16:00,31.7,26.8,29.85,West,281,0.0,1.0,82,0.00,,,0.00,0,Wunderground v.1.15,2013-01-07 07:16:00,
2013-01-07 02:26:00,31.3,26.4,29.85,West,281,0.0,1.0,82,0.00,,,0.00,0,Wunderground v.1.15,2013-01-07 07:26:00,
2013-01-07 02:31:00,31.1,26.5,29.85,West,281,0.0,1.0,83,0.00,,,0.00,0,Wunderground v.1.15,2013-01-07 07:31:00,
2013-01-07 02:36:00,31.0,26.4,29.85,West,281,0.0,1.0,83,0.00,,,0.00,0,Wunderground v.1.15,2013-01-07 07:36:00,
2013-01-07 02:46:00,30.6,26.1,29.85,West,281,0.0,1.0,83,0.00,,,0.00,0,Wunderground v.1.15,2013-01-07 07:46:00,
2013-01-07 02:51:00,30.2,25.9,29.85,West,281,0.0,1.0,84,0.00,,,0.00,0,Wunderground v.1.15,2013-01-07 07:51:00,
2013-01-07 02:56:00,29.8,25.6,29.85,West,281,0.0,1.0,84,0.00,,,0.00,0,Wunderground v.1.15,2013-01-07 07:56:00,
2013-01-07 03:01:00,29.4,25.4,29.85,West,281,0.0,1.0,85,0.00,,,0.00,0,Wunderground v.1.15,2013-01-07 08:01:00,
2013-01-07 03:07:00,29.1,25.4,29.85,West,281,0.0,1.0,86,0.00,,,0.00,0,Wunderground v.1.15,2013-01-07 08:07:00,
2013-01-07 03:16:00,29.0,25.3,29.85,WSW,241,0.0,1.0,86,0.00,,,0.00,0,Wunderground v.1.15,2013-01-07 08:16:00,
2013-01-07 03:21:00,29.0,25.6,29.85,WSW,240,0.0,1.0,87,0.00,,,0.00,0,Wunderground v.1.15,2013-01-07 08:21:00,
2013-01-07 03:31:00,29.4,26.0,29.85,West,262,0.0,1.0,87,0.00,,,0.00,0,Wunderground v.1.15,2013-01-07 08:31:00,
2013-01-07 03:41:00,29.7,26.0,29.85,WSW,253,0.0,1.0,86,0.00,,,0.00,0,Wunderground v.1.15,2013-01-07 08:41:00,
2013-01-07 03:46:00,29.9,26.2,29.86,WSW,253,0.0,1.0,86,0.00,,,0.00,0,Wunderground v.1.15,2013-01-07 08:46:00,
2013-01-07 03:51:00,30.0,26.3,29.86,WSW,253,0.0,1.0,86,0.00,,,0.00,0,Wunderground v.1.15,2013-01-07 08:51:00,
2013-01-07 03:56:00,30.1,26.4,29.86,WSW,253,0.0,1.0,86,0.00,,,0.00,0,Wunderground v.1.15,2013-01-07 08:56:00,
2013-01-07 04:07:00,30.1,26.1,29.87,WSW,253,0.0,1.0,85,0.00,,,0.00,0,Wunderground v.1.15,2013-01-07 09:07:00,
2013-01-07 04:16:00,29.8,25.8,29.86,WSW,253,0.0,1.0,85,0.00,,,0.00,0,Wunderground v.1.15,2013-01-07 09:16:00,
2013-01-07 04:21:00,29.7,26.0,29.87,WSW,253,0.0,1.0,86,0.00,,,0.00,0,Wunderground v.1.15,2013-01-07 09:21:00,
2013-01-07 04:26:00,29.8,26.1,29.87,SW,228,0.0,1.0,86,0.00,,,0.00,0,Wunderground v.1.15,2013-01-07 09:26:00,
2013-01-07 04:31:00,30.0,26.6,29.87,SW,228,0.0,1.0,87,0.00,,,0.00,0,Wunderground v.1.15,2013-01-07 09:31:00,
2013-01-07 04:36:00,30.3,26.9,29.87,SW,228,0.0,1.0,87,0.00,,,0.00,0,Wunderground v.1.15,2013-01-07 09:36:00,
2013-01-07 04:41:00,30.4,26.7,29.88,SW,228,0.0,1.0,86,0.00,,,0.00,0,Wunderground v.1.15,2013-01-07 09:41:00,
2013-01-07 04:51:00,30.2,26.2,29.88,SW,228,0.0,1.0,85,0.00,,,0.00,0,Wunderground v.1.15,2013-01-07 09:51:00,
2013-01-07 04:56:00,30.1,26.1,29.88,SW,228,0.0,1.0,85,0.00,,,0.00,0,Wunderground v.1.15,2013-01-07 09:56:00,
2013-01-07 05:01:00,29.3,25.6,29.88,SW,228,0.0,1.0,86,0.00,,,0.00,0,Wunderground v.1.15,2013-01-07 10:01:00,
2013-01-07 05:06:00,28.8,25.1,29.89,SW,228,0.0,1.0,86,0.00,,,0.00,0,Wunderground v.1.15,2013-01-07 10:06:00,
2013-01-07 05:16:00,28.4,25.3,29.89,SW,228,0.0,1.0,88,0.00,,,0.00,0,Wunderground v.1.15,2013-01-07 10:16:00,
2013-01-07 05:21:00,28.3,25.2,29.90,SW,228,0.0,1.0,88,0.00,,,0.00,0,Wunderground v.1.15,2013-01-07 10:21:00,
2013-01-07 05:31:00,27.5,24.4,29.90,SW,228,0.0,1.0,88,0.00,,,0.00,0,Wunderground v.1.15,2013-01-07 10:31:00,
2013-01-07 05:36:00,26.9,23.8,29.90,SW,228,0.0,1.0,88,0.00,,,0.00,0,Wunderground v.1.15,2013-01-07 10:36:00,
2013-01-07 05:41:00,26.5,23.7,29.90,SW,228,0.0,1.0,89,0.00,,,0.00,0,Wunderground v.1.15,2013-01-07 10:41:00,
2013-01-07 05:46:00,26.3,23.5,29.91,SW,228,0.0,1.0,89,0.00,,,0.00,0,Wunderground v.1.15,2013-01-07 10:46:00,
2013-01-07 05:51:00,26.1,23.6,29.91,SW,228,0.0,1.0,90,0.00,,,0.00,0,Wunderground v.1.15,2013-01-07 10:51:00,
2013-01-07 05:56:00,25.8,23.3,29.92,SW,228,0.0,1.0,90,0.00,,,0.00,0,Wunderground v.1.15,2013-01-07 10:56:00,
2013-01-07 06:01:00,25.6,23.1,29.92,SW,228,0.0,1.0,90,0.00,,,0.00,0,Wunderground v.1.15,2013-01-07 11:01:00,
2013-01-07 06:06:00,25.3,22.8,29.93,SW,228,0.0,1.0,90,0.00,,,0.00,0,Wunderground v.1.15,2013-01-07 11:06:00,
2013-01-07 06:15:00,25.1,22.8,29.93,SW,228,0.0,1.0,91,0.00,,,0.00,0,Wunderground v.1.15,2013-01-07 11:15:00,
2013-01-07 06:21:00,25.1,22.8,29.93,SW,228,0.0,1.0,91,0.00,,,0.00,0,Wunderground v.1.15,2013-01-07 11:21:00,
2013-01-07 06:26:00,25.2,23.2,29.94,SW,228,0.0,1.0,92,0.00,,,0.00,0,Wunderground v.1.15,2013-01-07 11:26:00,
2013-01-07 06:31:00,25.2,23.2,29.94,SW,228,0.0,1.0,92,0.00,,,0.00,0,Wunderground v.1.15,2013-01-07 11:31:00,
2013-01-07 06:36:00,25.4,23.7,29.95,SW,228,0.0,1.0,93,0.00,,,0.00,0,Wunderground v.1.15,2013-01-07 11:36:00,
2013-01-07 06:41:00,25.6,23.9,29.95,SW,228,0.0,1.0,93,0.00,,,0.00,0,Wunderground v.1.15,2013-01-07 11:41:00,
2013-01-07 06:51:00,26.2,24.5,29.96,SW,228,0.0,1.0,93,0.00,,,0.00,0,Wunderground v.1.15,2013-01-07 11:51:00,
2013-01-07 07:00:00,26.4,24.4,29.97,SW,228,0.0,1.0,92,0.00,,,0.00,0,Wunderground v.1.15,2013-01-07 12:00:00,
2013-01-07 07:06:00,26.3,24.3,29.97,SW,228,0.0,1.0,92,0.00,,,0.00,0,Wunderground v.1.15,2013-01-07 12:06:00,
2013-01-07 07:15:00,25.9,23.6,29.98,SW,228,0.0,1.0,91,0.00,,,0.00,5,Wunderground v.1.15,2013-01-07 12:15:00,
2013-01-07 07:20:00,25.7,23.7,29.98,SW,228,0.0,1.0,92,0.00,,,0.00,7,Wunderground v.1.15,2013-01-07 12:20:00,
2013-01-07 07:25:00,25.6,23.6,29.98,SW,228,0.0,1.0,92,0.00,,,0.00,9,Wunderground v.1.15,2013-01-07 12:25:00,
2013-01-07 07:35:00,25.3,23.3,29.99,SW,228,0.0,1.0,92,0.00,,,0.00,14,Wunderground v.1.15,2013-01-07 12:35:00,
2013-01-07 07:40:00,25.2,23.2,29.99,SW,228,0.0,1.0,92,0.00,,,0.00,19,Wunderground v.1.15,2013-01-07 12:40:00,
2013-01-07 07:45:00,25.2,23.2,29.99,SW,228,0.0,1.0,92,0.00,,,0.00,21,Wunderground v.1.15,2013-01-07 12:45:00,
2013-01-07 07:50:00,25.1,23.1,30.00,SW,228,0.0,1.0,92,0.00,,,0.00,26,Wunderground v.1.15,2013-01-07 12:50:00,
2013-01-07 07:55:00,25.0,23.3,30.00,SW,228,0.0,1.0,93,0.00,,,0.00,39,Wunderground v.1.15,2013-01-07 12:55:00,
2013-01-07 08:00:00,25.2,23.5,30.01,SW,228,0.0,1.0,93,0.00,,,0.00,47,Wunderground v.1.15,2013-01-07 13:00:00,
2013-01-07 08:06:00,25.4,23.9,30.01,SW,228,0.0,1.0,94,0.00,,,0.00,32,Wunderground v.1.15,2013-01-07 13:06:00,
2013-01-07 08:15:00,25.9,24.4,30.02,SW,228,0.0,1.0,94,0.00,,,0.00,76,Wunderground v.1.15,2013-01-07 13:15:00,
2013-01-07 08:20:00,26.1,24.6,30.02,SW,228,0.0,1.0,94,0.00,,,0.00,65,Wunderground v.1.15,2013-01-07 13:20:00,
2013-01-07 08:30:00,26.4,24.7,30.04,SW,228,0.0,1.0,93,0.00,,,0.00,69,Wunderground v.1.15,2013-01-07 13:30:00,
2013-01-07 08:35:00,26.6,24.8,30.04,SW,228,0.0,1.0,93,0.00,,,0.00,49,Wunderground v.1.15,2013-01-07 13:35:00,
2013-01-07 08:40:00,26.9,25.1,30.05,SW,228,0.0,1.0,93,0.00,,,0.00,86,Wunderground v.1.15,2013-01-07 13:40:00,
2013-01-07 08:45:00,27.5,25.7,30.05,SW,228,0.0,1.0,93,0.00,,,0.00,105,Wunderground v.1.15,2013-01-07 13:45:00,
2013-01-07 08:50:00,28.1,26.3,30.05,SW,228,0.0,1.0,93,0.00,,,0.00,84,Wunderground v.1.15,2013-01-07 13:50:00,
2013-01-07 09:00:00,30.5,28.5,30.06,South,178,0.0,1.0,92,0.00,,,0.00,199,Wunderground v.1.15,2013-01-07 14:00:00,
2013-01-07 09:06:00,31.8,28.9,30.07,SSW,200,0.0,1.0,89,0.00,,,0.00,209,Wunderground v.1.15,2013-01-07 14:06:00,
2013-01-07 09:15:00,33.8,28.6,30.08,WNW,294,1.0,2.0,81,0.00,,,0.00,229,Wunderground v.1.15,2013-01-07 14:15:00,
2013-01-07 09:20:00,34.6,27.8,30.08,NE,51,1.0,3.0,76,0.00,,,0.00,241,Wunderground v.1.15,2013-01-07 14:20:00,
2013-01-07 09:25:00,35.2,27.4,30.08,North,355,2.0,3.0,73,0.00,,,0.00,253,Wunderground v.1.15,2013-01-07 14:25:00,
2013-01-07 09:30:00,35.5,27.0,30.09,WNW,294,2.0,2.0,71,0.00,,,0.00,262,Wunderground v.1.15,2013-01-07 14:30:00,
2013-01-07 09:40:00,36.0,26.1,30.10,NW,310,2.0,3.0,67,0.00,,,0.00,285,Wunderground v.1.15,2013-01-07 14:40:00,
2013-01-07 09:45:00,36.1,26.2,30.10,NW,310,2.0,3.0,67,0.00,,,0.00,301,Wunderground v.1.15,2013-01-07 14:45:00,
2013-01-07 09:50:00,36.2,25.9,30.10,WNW,298,2.0,2.0,66,0.00,,,0.00,313,Wunderground v.1.15,2013-01-07 14:50:00,
2013-01-07 09:55:00,36.3,25.7,30.10,NW,321,2.0,3.0,65,0.00,,,0.00,327,Wunderground v.1.15,2013-01-07 14:55:00,
2013-01-07 10:00:00,36.1,24.7,30.11,WNW,297,3.0,3.0,63,0.00,,,0.00,338,Wunderground v.1.15,2013-01-07 15:00:00,
2013-01-07 10:06:00,36.1,25.1,30.11,NW,318,3.0,3.0,64,0.00,,,0.00,348,Wunderground v.1.15,2013-01-07 15:06:00,
2013-01-07 10:15:00,36.2,24.8,30.11,WNW,297,3.0,3.0,63,0.00,,,0.00,366,Wunderground v.1.15,2013-01-07 15:15:00,
2013-01-07 10:20:00,36.3,24.5,30.11,West,279,3.0,3.0,62,0.00,,,0.00,369,Wunderground v.1.15,2013-01-07 15:20:00,
2013-01-07 10:25:00,36.4,24.2,30.11,NW,321,3.0,3.0,61,0.00,,,0.00,373,Wunderground v.1.15,2013-01-07 15:25:00,
2013-01-07 10:30:00,36.4,24.6,30.11,NW,304,2.0,3.0,62,0.00,,,0.00,383,Wunderground v.1.15,2013-01-07 15:30:00,
2013-01-07 10:35:00,36.5,24.3,30.11,NW,315,2.0,5.0,61,0.00,,,0.00,387,Wunderground v.1.15,2013-01-07 15:35:00,
2013-01-07 10:40:00,36.6,24.4,30.11,WNW,287,2.0,3.0,61,0.00,,,0.00,394,Wunderground v.1.15,2013-01-07 15:40:00,
2013-01-07 10:45:00,36.5,23.9,30.11,NW,306,2.0,3.0,60,0.00,,,0.00,397,Wunderground v.1.15,2013-01-07 15:45:00,
2013-01-07 10:55:00,36.7,24.5,30.12,North,9,2.0,3.0,61,0.00,,,0.00,404,Wunderground v.1.15,2013-01-07 15:55:00,
2013-01-07 11:00:00,36.8,24.2,30.12,NW,313,2.0,4.0,60,0.00,,,0.00,413,Wunderground v.1.15,2013-01-07 16:00:00,
2013-01-07 11:05:00,36.9,24.7,30.12,NW,323,2.0,4.0,61,0.00,,,0.00,417,Wunderground v.1.15,2013-01-07 16:05:00,
2013-01-07 11:15:00,37.0,24.0,30.12,NNW,332,3.0,3.0,59,0.00,,,0.00,422,Wunderground v.1.15,2013-01-07 16:15:00,
2013-01-07 11:20:00,37.1,24.1,30.12,SW,230,2.0,2.0,59,0.00,,,0.00,424,Wunderground v.1.15,2013-01-07 16:20:00,
2013-01-07 11:25:00,36.9,23.5,30.13,NNE,19,3.0,3.0,58,0.00,,,0.00,431,Wunderground v.1.15,2013-01-07 16:25:00,
2013-01-07 11:30:00,37.2,23.8,30.13,NW,321,3.0,3.0,58,0.00,,,0.00,432,Wunderground v.1.15,2013-01-07 16:30:00,
2013-01-07 11:35:00,37.3,23.0,30.13,North,355,2.0,3.0,56,0.00,,,0.00,434,Wunderground v.1.15,2013-01-07 16:35:00,
2013-01-07 11:45:00,37.3,23.0,30.13,NW,304,2.0,2.0,56,0.00,,,0.00,438,Wunderground v.1.15,2013-01-07 16:45:00,
2013-01-07 11:50:00,37.3,23.0,30.13,NE,36,2.0,3.0,56,0.00,,,0.00,436,Wunderground v.1.15,2013-01-07 16:50:00,
2013-01-07 11:55:00,37.3,22.6,30.13,NW,317,2.0,3.0,55,0.00,,,0.00,441,Wunderground v.1.15,2013-01-07 16:55:00,
2013-01-07 12:00:00,37.4,22.7,30.13,West,276,2.0,2.0,55,0.00,,,0.00,441,Wunderground v.1.15,2013-01-07 17:00:00,
2013-01-07 12:05:00,37.8,22.6,30.13,West,276,1.0,2.0,54,0.00,,,0.00,441,Wunderground v.1.15,2013-01-07 17:05:00,
2013-01-07 12:15:00,37.8,22.6,30.14,North,355,1.0,2.0,54,0.00,,,0.00,436,Wunderground v.1.15,2013-01-07 17:15:00,
2013-01-07 12:25:00,37.8,21.7,30.14,WNW,298,1.0,1.0,52,0.00,,,0.00,436,Wunderground v.1.15,2013-01-07 17:25:00,
2013-01-07 12:30:00,37.7,21.6,30.14,WNW,284,2.0,3.0,52,0.00,,,0.00,434,Wunderground v.1.15,2013-01-07 17:30:00,
2013-01-07 12:35:00,37.6,21.1,30.14,West,261,2.0,3.0,51,0.00,,,0.00,432,Wunderground v.1.15,2013-01-07 17:35:00,
2013-01-07 12:40:00,37.6,21.5,30.14,WNW,301,2.0,3.0,52,0.00,,,0.00,431,Wunderground v.1.15,2013-01-07 17:40:00,
2013-01-07 12:45:00,37.2,21.2,30.14,NW,304,2.0,3.0,52,0.00,,,0.00,429,Wunderground v.1.15,2013-01-07 17:45:00,
2013-01-07 12:50:00,37.0,21.4,30.15,NW,320,2.0,2.0,53,0.00,,,0.00,425,Wunderground v.1.15,2013-01-07 17:50:00,
2013-01-07 12:55:00,37.2,21.2,30.15,WNW,298,2.0,3.0,52,0.00,,,0.00,420,Wunderground v.1.15,2013-01-07 17:55:00,
2013-01-07 13:05:00,37.3,20.8,30.15,NW,312,2.0,2.0,51,0.00,,,0.00,411,Wunderground v.1.15,2013-01-07 18:05:00,
2013-01-07 13:14:00,37.8,20.8,30.15,WNW,288,2.0,2.0,50,0.00,,,0.00,401,Wunderground v.1.15,2013-01-07 18:14:00,
2013-01-07 13:19:00,37.6,20.6,30.15,NW,305,2.0,2.0,50,0.00,,,0.00,394,Wunderground v.1.15,2013-01-07 18:19:00,
2013-01-07 13:24:00,37.6,20.6,30.15,WNW,302,2.0,2.0,50,0.00,,,0.00,385,Wunderground v.1.15,2013-01-07 18:24:00,
2013-01-07 13:29:00,37.7,20.2,30.15,North,5,1.0,2.0,49,0.00,,,0.00,378,Wunderground v.1.15,2013-01-07 18:29:00,
2013-01-07 13:34:00,37.7,19.8,30.15,NW,314,1.0,2.0,48,0.00,,,0.00,373,Wunderground v.1.15,2013-01-07 18:34:00,
2013-01-07 13:44:00,37.6,20.6,30.16,NNW,336,1.0,1.0,50,0.00,,,0.00,357,Wunderground v.1.15,2013-01-07 18:44:00,
2013-01-07 13:54:00,37.9,20.4,30.17,NNE,30,1.0,1.0,49,0.00,,,0.00,343,Wunderground v.1.15,2013-01-07 18:54:00,
2013-01-07 13:59:00,37.5,19.1,30.17,NW,321,2.0,2.0,47,0.00,,,0.00,336,Wunderground v.1.15,2013-01-07 18:59:00,
2013-01-07 14:09:00,37.9,19.4,30.17,NNW,329,1.0,2.0,47,0.00,,,0.00,316,Wunderground v.1.15,2013-01-07 19:09:00,
2013-01-07 14:14:00,37.7,19.3,30.17,WNW,284,2.0,2.0,47,0.00,,,0.00,306,Wunderground v.1.15,2013-01-07 19:14:00,
2013-01-07 14:19:00,37.8,19.3,30.17,WNW,302,1.0,1.0,47,0.00,,,0.00,292,Wunderground v.1.15,2013-01-07 19:19:00,
2013-01-07 14:29:00,38.5,19.5,30.18,NW,305,1.0,1.0,46,0.00,,,0.00,271,Wunderground v.1.15,2013-01-07 19:29:00,
2013-01-07 14:34:00,38.4,19.9,30.18,NW,305,1.0,1.0,47,0.00,,,0.00,258,Wunderground v.1.15,2013-01-07 19:34:00,
2013-01-07 14:39:00,38.0,19.5,30.18,NNW,339,1.0,1.0,47,0.00,,,0.00,248,Wunderground v.1.15,2013-01-07 19:39:00,
2013-01-07 14:44:00,38.1,19.1,30.18,NE,34,1.0,1.0,46,0.00,,,0.00,234,Wunderground v.1.15,2013-01-07 19:44:00,
2013-01-07 14:49:00,38.1,20.1,30.19,NNW,332,0.0,1.0,48,0.00,,,0.00,220,Wunderground v.1.15,2013-01-07 19:49:00,
2013-01-07 14:54:00,37.9,18.9,30.19,WNW,295,1.0,2.0,46,0.00,,,0.00,207,Wunderground v.1.15,2013-01-07 19:54:00,
2013-01-07 15:05:00,37.2,19.8,30.19,WNW,295,1.0,2.0,49,0.00,,,0.00,176,Wunderground v.1.15,2013-01-07 20:05:00,
2013-01-07 15:14:00,37.4,19.0,30.20,WNW,295,0.0,1.0,47,0.00,,,0.00,33,Wunderground v.1.15,2013-01-07 20:14:00,
2013-01-07 15:19:00,36.9,18.5,30.19,WNW,295,0.0,1.0,47,0.00,,,0.00,51,Wunderground v.1.15,2013-01-07 20:19:00,
2013-01-07 15:24:00,36.3,18.5,30.19,WNW,295,0.0,1.0,48,0.00,,,0.00,30,Wunderground v.1.15,2013-01-07 20:24:00,
2013-01-07 15:29:00,36.0,19.6,30.19,WNW,295,0.0,1.0,51,0.00,,,0.00,30,Wunderground v.1.15,2013-01-07 20:29:00,
2013-01-07 15:34:00,35.7,18.9,30.20,WNW,295,0.0,1.0,50,0.00,,,0.00,33,Wunderground v.1.15,2013-01-07 20:34:00,
2013-01-07 15:39:00,35.4,18.6,30.20,WNW,295,0.0,1.0,50,0.00,,,0.00,63,Wunderground v.1.15,2013-01-07 20:39:00,
2013-01-07 15:44:00,35.3,19.0,30.20,WNW,295,0.0,1.0,51,0.00,,,0.00,49,Wunderground v.1.15,2013-01-07 20:44:00,
2013-01-07 15:49:00,35.3,18.0,30.20,WNW,295,0.0,1.0,49,0.00,,,0.00,28,Wunderground v.1.15,2013-01-07 20:49:00,
2013-01-07 15:54:00,35.0,18.7,30.20,WNW,295,0.0,1.0,51,0.00,,,0.00,23,Wunderground v.1.15,2013-01-07 20:54:00,
2013-01-07 15:59:00,34.8,17.6,30.21,WNW,295,0.0,1.0,49,0.00,,,0.00,19,Wunderground v.1.15,2013-01-07 20:59:00,
2013-01-07 16:05:00,34.6,17.8,30.21,WNW,295,0.0,1.0,50,0.00,,,0.00,18,Wunderground v.1.15,2013-01-07 21:05:00,
2013-01-07 16:14:00,34.1,17.8,30.21,WNW,295,0.0,1.0,51,0.00,,,0.00,14,Wunderground v.1.15,2013-01-07 21:14:00,
2013-01-07 16:19:00,33.7,17.9,30.21,WNW,295,0.0,1.0,52,0.00,,,0.00,11,Wunderground v.1.15,2013-01-07 21:19:00,
2013-01-07 16:29:00,33.0,17.3,30.21,WNW,295,0.0,1.0,52,0.00,,,0.00,7,Wunderground v.1.15,2013-01-07 21:29:00,
2013-01-07 16:34:00,32.6,17.8,30.22,WNW,295,0.0,1.0,54,0.00,,,0.00,5,Wunderground v.1.15,2013-01-07 21:34:00,
2013-01-07 16:39:00,32.1,17.3,30.22,WNW,295,0.0,1.0,54,0.00,,,0.00,0,Wunderground v.1.15,2013-01-07 21:39:00,
2013-01-07 16:44:00,31.6,16.8,30.22,WNW,295,0.0,1.0,54,0.00,,,0.00,0,Wunderground v.1.15,2013-01-07 21:44:00,
2013-01-07 16:49:00,31.1,20.3,30.22,WNW,295,0.0,1.0,64,0.00,,,0.00,0,Wunderground v.1.15,2013-01-07 21:49:00,
2013-01-07 16:54:00,30.3,19.2,30.22,WNW,295,0.0,1.0,63,0.00,,,0.00,0,Wunderground v.1.15,2013-01-07 21:54:00,
2013-01-07 16:59:00,29.8,18.7,30.22,WNW,295,0.0,1.0,63,0.00,,,0.00,0,Wunderground v.1.15,2013-01-07 21:59:00,
2013-01-07 17:04:00,29.3,19.3,30.22,WNW,295,0.0,1.0,66,0.00,,,0.00,0,Wunderground v.1.15,2013-01-07 22:04:00,
2013-01-07 17:14:00,28.5,18.6,30.22,WNW,295,0.0,1.0,66,0.00,,,0.00,0,Wunderground v.1.15,2013-01-07 22:14:00,
2013-01-07 17:19:00,28.1,18.2,30.23,WNW,295,0.0,1.0,66,0.00,,,0.00,0,Wunderground v.1.15,2013-01-07 22:19:00,
2013-01-07 17:24:00,27.7,19.2,30.23,WNW,295,0.0,1.0,70,0.00,,,0.00,0,Wunderground v.1.15,2013-01-07 22:24:00,
2013-01-07 17:29:00,27.3,18.8,30.23,WNW,295,0.0,1.0,70,0.00,,,0.00,0,Wunderground v.1.15,2013-01-07 22:29:00,
2013-01-07 17:34:00,26.9,18.4,30.23,WNW,295,0.0,1.0,70,0.00,,,0.00,0,Wunderground v.1.15,2013-01-07 22:34:00,
2013-01-07 17:39:00,26.7,18.2,30.22,WNW,295,0.0,1.0,70,0.00,,,0.00,0,Wunderground v.1.15,2013-01-07 22:39:00,
2013-01-07 17:49:00,26.2,18.4,30.23,WNW,295,0.0,1.0,72,0.00,,,0.00,0,Wunderground v.1.15,2013-01-07 22:49:00,
2013-01-07 17:54:00,26.0,18.2,30.23,WNW,295,0.0,1.0,72,0.00,,,0.00,0,Wunderground v.1.15,2013-01-07 22:54:00,
2013-01-07 17:59:00,25.8,18.3,30.24,WNW,295,0.0,1.0,73,0.00,,,0.00,0,Wunderground v.1.15,2013-01-07 22:59:00,
2013-01-07 18:05:00,25.6,18.5,30.24,WNW,295,0.0,1.0,74,0.00,,,0.00,0,Wunderground v.1.15,2013-01-07 23:05:00,
2013-01-07 18:14:00,25.3,19.1,30.25,WNW,295,0.0,1.0,77,0.00,,,0.00,0,Wunderground v.1.15,2013-01-07 23:14:00,
2013-01-07 18:19:00,25.1,19.2,30.25,WNW,295,0.0,1.0,78,0.00,,,0.00,0,Wunderground v.1.15,2013-01-07 23:19:00,
2013-01-07 18:24:00,24.9,19.0,30.25,WNW,295,0.0,1.0,78,0.00,,,0.00,0,Wunderground v.1.15,2013-01-07 23:24:00,
2013-01-07 18:34:00,24.6,18.7,30.24,WNW,295,1.0,1.0,78,0.00,,,0.00,0,Wunderground v.1.15,2013-01-07 23:34:00,
2013-01-07 18:39:00,24.6,18.7,30.24,WNW,295,0.0,1.0,78,0.00,,,0.00,0,Wunderground v.1.15,2013-01-07 23:39:00,
2013-01-07 18:44:00,24.5,18.3,30.24,WNW,295,0.0,1.0,77,0.00,,,0.00,0,Wunderground v.1.15,2013-01-07 23:44:00,
2013-01-07 18:54:00,24.3,17.8,30.24,WNW,295,0.0,1.0,76,0.00,,,0.00,0,Wunderground v.1.15,2013-01-07 23:54:00,
2013-01-07 18:59:00,24.2,17.7,30.24,WNW,295,0.0,1.0,76,0.00,,,0.00,0,Wunderground v.1.15,2013-01-07 23:59:00,
2013-01-07 19:04:00,23.8,17.9,30.24,WNW,295,0.0,1.0,78,0.00,,,0.00,0,Wunderground v.1.15,2013-01-08 00:04:00,
2013-01-07 19:14:00,23.5,17.6,30.24,WNW,295,0.0,1.0,78,0.00,,,0.00,0,Wunderground v.1.15,2013-01-08 00:14:00,
2013-01-07 19:23:00,23.4,17.8,30.24,WNW,295,0.0,1.0,79,0.00,,,0.00,0,Wunderground v.1.15,2013-01-08 00:23:00,
2013-01-07 19:28:00,23.4,18.1,30.24,WNW,295,0.0,1.0,80,0.00,,,0.00,0,Wunderground v.1.15,2013-01-08 00:28:00,
2013-01-07 19:38:00,22.9,17.7,30.24,WNW,295,0.0,1.0,80,0.00,,,0.00,0,Wunderground v.1.15,2013-01-08 00:38:00,
2013-01-07 19:43:00,22.7,17.5,30.24,WNW,295,0.0,1.0,80,0.00,,,0.00,0,Wunderground v.1.15,2013-01-08 00:43:00,
2013-01-07 19:53:00,22.4,17.5,30.23,WNW,295,0.0,1.0,81,0.00,,,0.00,0,Wunderground v.1.15,2013-01-08 00:53:00,
2013-01-07 19:58:00,22.2,17.3,30.23,WNW,295,0.0,1.0,81,0.00,,,0.00,0,Wunderground v.1.15,2013-01-08 00:58:00,
2013-01-07 20:04:00,21.8,16.9,30.23,WNW,295,0.0,1.0,81,0.00,,,0.00,0,Wunderground v.1.15,2013-01-08 01:04:00,
2013-01-07 20:14:00,21.5,17.1,30.23,WNW,295,0.0,1.0,83,0.00,,,0.00,0,Wunderground v.1.15,2013-01-08 01:14:00,
2013-01-07 20:19:00,21.3,16.9,30.23,WNW,295,0.0,1.0,83,0.00,,,0.00,0,Wunderground v.1.15,2013-01-08 01:19:00,
2013-01-07 20:29:00,21.0,16.9,30.23,WNW,295,0.0,1.0,84,0.00,,,0.00,0,Wunderground v.1.15,2013-01-08 01:29:00,
2013-01-07 20:34:00,20.9,16.8,30.23,WNW,295,0.0,1.0,84,0.00,,,0.00,0,Wunderground v.1.15,2013-01-08 01:34:00,
2013-01-07 20:43:00,20.7,16.9,30.23,WNW,295,0.0,1.0,85,0.00,,,0.00,0,Wunderground v.1.15,2013-01-08 01:43:00,
2013-01-07 20:48:00,20.5,16.7,30.24,WNW,295,0.0,1.0,85,0.00,,,0.00,0,Wunderground v.1.15,2013-01-08 01:48:00,
2013-01-07 20:53:00,20.3,16.5,30.24,WNW,295,0.0,1.0,85,0.00,,,0.00,0,Wunderground v.1.15,2013-01-08 01:53:00,
2013-01-07 20:58:00,20.3,16.5,30.24,WNW,295,0.0,1.0,85,0.00,,,0.00,0,Wunderground v.1.15,2013-01-08 01:58:00,
2013-01-07 21:04:00,20.3,16.5,30.24,WNW,295,0.0,1.0,85,0.00,,,0.00,0,Wunderground v.1.15,2013-01-08 02:04:00,
2013-01-07 21:13:00,20.5,16.7,30.24,WNW,295,0.0,1.0,85,0.00,,,0.00,0,Wunderground v.1.15,2013-01-08 02:13:00,
2013-01-07 21:18:00,20.4,16.6,30.24,WNW,295,0.0,1.0,85,0.00,,,0.00,0,Wunderground v.1.15,2013-01-08 02:18:00,
2013-01-07 21:23:00,20.2,16.4,30.23,WNW,295,0.0,1.0,85,0.00,,,0.00,0,Wunderground v.1.15,2013-01-08 02:23:00,
2013-01-07 21:33:00,19.9,16.4,30.23,WNW,295,0.0,1.0,86,0.00,,,0.00,0,Wunderground v.1.15,2013-01-08 02:33:00,
2013-01-07 21:38:00,19.8,16.3,30.23,WNW,295,0.0,1.0,86,0.00,,,0.00,0,Wunderground v.1.15,2013-01-08 02:38:00,
2013-01-07 21:43:00,19.7,16.2,30.24,WNW,295,0.0,1.0,86,0.00,,,0.00,0,Wunderground v.1.15,2013-01-08 02:43:00,
2013-01-07 21:48:00,19.6,16.1,30.24,WNW,295,0.0,1.0,86,0.00,,,0.00,0,Wunderground v.1.15,2013-01-08 02:48:00,
2013-01-07 21:58:00,19.4,16.2,30.23,WNW,295,0.0,1.0,87,0.00,,,0.00,0,Wunderground v.1.15,2013-01-08 02:58:00,
2013-01-07 22:04:00,19.4,16.2,30.23,WNW,295,0.0,1.0,87,0.00,,,0.00,0,Wunderground v.1.15,2013-01-08 03:04:00,
2013-01-07 22:13:00,19.1,15.9,30.23,WNW,295,0.0,1.0,87,0.00,,,0.00,0,Wunderground v.1.15,2013-01-08 03:13:00,
2013-01-07 22:23:00,18.8,15.8,30.23,WNW,295,0.0,1.0,88,0.00,,,0.00,0,Wunderground v.1.15,2013-01-08 03:23:00,
2013-01-07 22:28:00,18.8,15.8,30.23,WNW,295,0.0,1.0,88,0.00,,,0.00,0,Wunderground v.1.15,2013-01-08 03:28:00,
2013-01-07 22:38:00,18.9,16.2,30.23,WNW,295,0.0,1.0,89,0.00,,,0.00,0,Wunderground v.1.15,2013-01-08 03:38:00,
2013-01-07 22:43:00,18.8,16.1,30.23,WNW,295,0.0,1.0,89,0.00,,,0.00,0,Wunderground v.1.15,2013-01-08 03:43:00,
2013-01-07 22:48:00,18.7,16.0,30.22,WNW,295,0.0,1.0,89,0.00,,,0.00,0,Wunderground v.1.15,2013-01-08 03:48:00,
2013-01-07 22:53:00,18.8,16.4,30.23,WNW,295,0.0,1.0,90,0.00,,,0.00,0,Wunderground v.1.15,2013-01-08 03:53:00,
2013-01-07 22:58:00,18.8,16.4,30.22,WNW,295,0.0,1.0,90,0.00,,,0.00,0,Wunderground v.1.15,2013-01-08 03:58:00,
2013-01-07 23:04:00,19.1,16.9,30.22,WNW,295,0.0,1.0,91,0.00,,,0.00,0,Wunderground v.1.15,2013-01-08 04:04:00,
2013-01-07 23:13:00,21.1,19.4,30.22,WNW,295,0.0,1.0,93,0.00,,,0.00,0,Wunderground v.1.15,2013-01-08 04:13:00,
2013-01-07 23:18:00,21.5,19.5,30.22,WNW,295,0.0,1.0,92,0.00,,,0.00,0,Wunderground v.1.15,2013-01-08 04:18:00,
2013-01-07 23:23:00,22.1,20.4,30.22,WNW,295,0.0,1.0,93,0.00,,,0.00,0,Wunderground v.1.15,2013-01-08 04:23:00,
2013-01-07 23:28:00,22.7,21.0,30.21,WNW,295,1.0,1.0,93,0.00,,,0.00,0,Wunderground v.1.15,2013-01-08 04:28:00,
2013-01-07 23:33:00,23.3,21.6,30.21,WSW,249,1.0,1.0,93,0.00,,,0.00,0,Wunderground v.1.15,2013-01-08 04:33:00,
2013-01-07 23:38:00,23.7,22.0,30.21,SSW,213,1.0,2.0,93,0.00,,,0.00,0,Wunderground v.1.15,2013-01-08 04:38:00,
2013-01-07 23:43:00,23.9,21.9,30.21,SSW,213,1.0,2.0,92,0.00,,,0.00,0,Wunderground v.1.15,2013-01-08 04:43:00,
2013-01-07 23:48:00,24.1,22.1,30.20,SSW,213,1.0,1.0,92,0.00,,,0.00,0,Wunderground v.1.15,2013-01-08 04:48:00,
2013-01-07 23:58:00,24.5,22.5,30.20,SSW,213,0.0,1.0,92,0.00,,,0.00,0,Wunderground v.1.15,2013-01-08 04:58:00,